Time;durP1;ratioP1;P1;durP2;ratioP2;P2;SDS_P1;SDS_P2;PMS_P1;PMS_P2;Temp;Humidity;BMP_temperature;BMP_pressure;BME280_temperature;BME280_humidity;BME280_pressure;Samples;Min_cycle;Max_cycle;Signal;HPM_P1;HPM_P2
2021/04/09 00:00:47;;;;;;;;;44.70;38.10;;;;;4.90;52.48;101092.55;484621;111;386169;-76
2021/04/09 00:01:51;;;;;;;;;35.50;30.60;;;;;4.77;52.95;101091.37;484857;111;384943;-80
2021/04/09 00:02:57;;;;;;;;;39.00;36.80;;;;;4.73;53.13;101092.42;488259;110;387015;-78
2021/04/09 00:04:00;;;;;;;;;39.00;34.20;;;;;4.60;53.54;101088.61;485596;112;385978;-79
2021/04/09 00:05:07;;;;;;;;;50.40;40.30;;;;;4.72;53.18;101088.10;486013;112;386536;-78
2021/04/09 00:06:12;;;;;;;;;33.30;29.10;;;;;4.85;53.19;101091.05;488310;110;385201;-78
2021/04/09 00:07:16;;;;;;;;;27.50;21.00;;;;;4.85;53.19;101091.05;488860;110;383544;-79
2021/04/09 00:08:20;;;;;;;;;42.90;37.80;;;;;4.92;52.97;101088.06;485645;112;385665;-79
2021/04/09 00:09:24;;;;;;;;;27.60;26.80;;;;;4.92;52.97;101088.06;487934;110;383375;-79
2021/04/09 00:10:29;;;;;;;;;51.10;40.30;;;;;4.79;53.81;101087.74;488079;110;386669;-80
2021/04/09 00:11:33;;;;;;;;;23.00;12.30;;;;;4.64;54.11;101090.20;486238;112;379825;-79
2021/04/09 00:12:37;;;;;;;;;38.70;31.90;;;;;4.55;54.08;101083.55;488895;110;386673;-79
2021/04/09 00:13:41;;;;;;;;;32.70;27.10;;;;;4.55;54.08;101083.55;485895;112;382775;-78
2021/04/09 00:14:45;;;;;;;;;43.30;37.50;;;;;4.53;54.18;101089.81;486025;112;386067;-79
2021/04/09 00:15:49;;;;;;;;;43.30;36.00;;;;;4.57;54.41;101094.01;488934;110;386697;-80
2021/04/09 00:16:53;;;;;;;;;43.80;39.70;;;;;4.69;53.71;101096.97;486070;112;386768;-80
2021/04/09 00:17:56;;;;;;;;;44.50;37.60;;;;;4.69;53.71;101096.97;486070;112;385918;-81
2021/04/09 00:19:00;;;;;;;;;38.00;36.10;;;;;4.92;53.33;101103.88;486112;112;386874;-79
2021/04/09 00:20:06;;;;;;;;;44.20;37.70;;;;;4.90;53.26;101100.46;485548;112;385944;-80
2021/04/09 00:21:10;;;;;;;;;47.60;38.30;;;;;4.90;53.26;101100.46;486398;112;385961;-79
2021/04/09 00:22:14;;;;;;;;;43.80;38.60;;;;;4.68;54.02;101095.28;491302;110;387024;-80
2021/04/09 00:23:18;;;;;;;;;51.10;41.30;;;;;4.77;53.95;101100.14;486192;112;386506;-78
2021/04/09 00:24:22;;;;;;;;;35.70;32.00;;;;;4.74;53.99;101088.88;485663;112;385004;-77
2021/04/09 00:25:26;;;;;;;;;32.20;25.50;;;;;4.54;54.75;101095.00;489317;110;384645;-77
2021/04/09 00:26:31;;;;;;;;;47.00;39.90;;;;;4.52;54.64;101088.95;485535;112;385815;-77
2021/04/09 00:27:35;;;;;;;;;42.10;32.30;;;;;4.41;55.35;101085.91;486677;112;386059;-77
2021/04/09 00:28:40;;;;;;;;;46.00;38.60;;;;;4.32;55.56;101081.03;486239;112;385206;-79
2021/04/09 00:29:44;;;;;;;;;28.60;22.80;;;;;4.32;55.56;101081.03;486103;112;383534;-80
2021/04/09 00:30:48;;;;;;;;;52.30;41.10;;;;;4.27;55.94;101088.28;485286;112;386427;-79
2021/04/09 00:31:52;;;;;;;;;43.00;37.60;;;;;4.30;55.82;101088.16;486718;112;386076;-76
2021/04/09 00:32:56;;;;;;;;;52.20;41.60;;;;;4.31;55.76;101095.11;487701;110;386257;-76
2021/04/09 00:34:00;;;;;;;;;29.70;23.60;;;;;4.19;56.61;101096.48;486494;112;382156;-75
2021/04/09 00:35:05;;;;;;;;;37.10;34.30;;;;;4.13;56.74;101095.88;489433;110;385228;-74
2021/04/09 00:36:10;;;;;;;;;23.40;15.60;;;;;4.00;57.25;101090.27;486370;112;382865;-75
2021/04/09 00:37:14;;;;;;;;;46.10;41.50;;;;;4.09;57.10;101094.28;486726;112;385553;-75
2021/04/09 00:38:18;;;;;;;;;41.40;34.60;;;;;3.97;57.48;101084.27;486623;112;385615;-77
2021/04/09 00:39:22;;;;;;;;;40.90;33.00;;;;;4.00;57.75;101089.41;489037;110;385486;-76
2021/04/09 00:40:26;;;;;;;;;36.60;30.40;;;;;4.00;57.75;101089.41;485811;112;385244;-75
2021/04/09 00:41:30;;;;;;;;;49.10;41.70;;;;;3.87;58.11;101091.67;488778;110;386063;-74
2021/04/09 00:42:34;;;;;;;;;52.80;40.60;;;;;3.94;57.73;101095.78;485617;112;387020;-76
2021/04/09 00:43:39;;;;;;;;;56.80;43.50;;;;;4.05;57.51;101096.19;485574;112;385432;-73
2021/04/09 00:44:43;;;;;;;;;58.60;44.90;;;;;4.05;57.22;101103.25;485376;112;385810;-76
2021/04/09 00:45:47;;;;;;;;;53.70;42.00;;;;;4.10;57.19;101104.77;485872;112;385062;-75
2021/04/09 00:46:51;;;;;;;;;31.70;29.10;;;;;3.96;57.36;101109.72;486055;112;383619;-74
2021/04/09 00:47:55;;;;;;;;;30.30;20.80;;;;;3.97;57.74;101111.45;489256;110;382493;-74
2021/04/09 00:48:59;;;;;;;;;58.70;47.50;;;;;4.13;57.33;101107.27;486095;112;385324;-70
2021/04/09 00:50:04;;;;;;;;;39.40;33.00;;;;;4.13;57.33;101107.27;491169;110;384229;-70
2021/04/09 00:51:08;;;;;;;;;40.40;33.00;;;;;4.18;56.96;101107.92;485938;112;383988;-70
2021/04/09 00:52:12;;;;;;;;;60.10;46.00;;;;;4.21;56.91;101107.80;488312;110;387018;-71
2021/04/09 00:53:16;;;;;;;;;46.30;39.10;;;;;4.18;57.12;101107.92;487264;110;386324;-71
2021/04/09 00:54:20;;;;;;;;;58.60;43.00;;;;;4.11;57.42;101109.13;487183;110;387170;-69
2021/04/09 00:55:23;;;;;;;;;56.10;45.70;;;;;4.20;57.21;101100.84;488264;110;386254;-69
2021/04/09 00:56:28;;;;;;;;;62.20;48.80;;;;;4.33;56.92;101105.59;488222;110;385725;-72
2021/04/09 00:57:32;;;;;;;;;52.10;41.20;;;;;4.33;56.92;101105.59;485794;112;387890;-69
2021/04/09 00:58:36;;;;;;;;;58.40;44.60;;;;;4.37;56.64;101104.55;486028;112;393923;-70
2021/04/09 00:59:39;;;;;;;;;61.90;45.60;;;;;4.37;56.64;101104.55;490663;110;393238;-70
2021/04/09 01:00:44;;;;;;;;;50.80;41.30;;;;;4.42;56.96;101116.60;485878;110;384512;-69
2021/04/09 01:01:48;;;;;;;;;56.50;43.70;;;;;4.48;56.55;101105.80;486041;112;392958;-70
2021/04/09 01:02:52;;;;;;;;;49.20;40.80;;;;;4.53;56.41;101116.16;482738;112;387383;-70
2021/04/09 01:03:56;;;;;;;;;57.50;42.10;;;;;4.50;56.71;101092.59;484018;111;386513;-70
2021/04/09 01:05:00;;;;;;;;;58.50;45.30;;;;;4.68;56.76;101115.50;482471;112;385991;-70
2021/04/09 01:06:04;;;;;;;;;57.40;44.20;;;;;4.75;55.91;101117.78;484498;111;393638;-70
2021/04/09 01:07:08;;;;;;;;;55.90;43.60;;;;;4.75;55.91;101117.78;482040;112;384359;-69
2021/04/09 01:08:12;;;;;;;;;49.80;41.80;;;;;4.85;56.25;101123.51;482989;112;386826;-69
2021/04/09 01:09:15;;;;;;;;;52.60;42.20;;;;;4.86;55.99;101121.73;482485;112;386416;-71
2021/04/09 01:10:21;;;;;;;;;44.10;38.80;;;;;4.82;55.60;101126.28;483054;111;387033;-70
2021/04/09 01:11:25;;;;;;;;;54.90;41.80;;;;;4.78;55.75;101125.58;481928;112;396119;-70
2021/04/09 01:12:29;;;;;;;;;42.10;36.10;;;;;4.78;55.75;101125.58;483115;111;392681;-71
2021/04/09 01:13:32;;;;;;;;;48.00;40.40;;;;;4.69;56.11;101125.95;482926;112;386218;-71
2021/04/09 01:14:36;;;;;;;;;20.70;14.90;;;;;4.69;56.04;101125.95;480807;113;380528;-69
2021/04/09 01:15:40;;;;;;;;;47.60;39.70;;;;;4.78;55.80;101127.36;482356;112;385832;-70
2021/04/09 01:16:48;;;;;;;;;46.90;40.10;;;;;4.78;55.80;101127.36;482165;112;386377;-70
2021/04/09 01:17:58;;;;;;;;;39.60;34.60;;;;;4.50;57.07;101135.56;482254;111;392497;-69
2021/04/09 01:19:05;;;;;;;;;39.90;37.50;;;;;4.50;57.07;101135.56;482361;112;386944;-69
2021/04/09 01:20:21;;;;;;;;;39.00;33.00;;;;;4.34;57.61;101133.66;482166;111;385444;-70
2021/04/09 01:21:28;;;;;;;;;47.50;37.90;;;;;4.26;58.03;101145.34;482870;112;389315;-71
2021/04/09 01:22:33;;;;;;;;;36.80;31.60;;;;;4.26;58.03;101145.34;482480;112;384983;-69
2021/04/09 01:24:00;;;;;;;;;43.80;38.60;;;;;4.19;58.25;101143.88;481973;112;385733;-70
2021/04/09 01:25:26;;;;;;;;;44.80;37.80;;;;;4.19;58.25;101143.88;483201;111;386591;-70
2021/04/09 01:26:57;;;;;;;;;39.20;32.80;;;;;4.29;57.86;101139.09;481346;112;386109;-71
2021/04/09 01:28:07;;;;;;;;;34.70;29.00;;;;;4.26;57.60;101140.08;481969;112;391749;-71
2021/04/09 01:30:01;;;;;;;;;42.70;35.60;;;;;4.26;57.60;101140.08;481970;112;386038;-70
2021/04/09 01:31:29;;;;;;;;;28.50;25.80;;;;;4.17;58.04;101150.12;483221;111;383559;-71
2021/04/09 01:32:33;;;;;;;;;36.00;31.00;;;;;4.23;57.79;101148.11;483257;111;385892;-72
2021/04/09 01:33:39;;;;;;;;;37.20;32.10;;;;;4.23;57.57;101142.84;482696;112;384133;-72
2021/04/09 01:34:44;;;;;;;;;40.40;35.80;;;;;4.23;57.57;101142.84;480284;113;385960;-72
2021/04/09 01:35:49;;;;;;;;;41.50;33.60;;;;;4.21;57.50;101149.09;484173;111;385154;-72
2021/04/09 01:36:55;;;;;;;;;40.70;33.20;;;;;4.21;57.50;101149.09;482039;112;385892;-74
2021/04/09 01:38:00;;;;;;;;;40.20;34.60;;;;;4.21;57.62;101147.30;482244;112;386106;-73
2021/04/09 01:39:07;;;;;;;;;44.30;36.20;;;;;4.28;57.45;101151.40;482848;112;384946;-72
2021/04/09 01:40:13;;;;;;;;;40.00;36.60;;;;;4.35;57.16;101152.00;481698;112;392230;-72
2021/04/09 01:41:17;;;;;;;;;37.10;32.00;;;;;4.35;57.16;101152.00;480867;112;384859;-73
2021/04/09 01:42:22;;;;;;;;;40.40;37.00;;;;;4.26;57.36;101155.02;484088;112;393771;-72
2021/04/09 01:43:25;;;;;;;;;34.80;27.80;;;;;4.29;57.40;101152.26;481577;112;390253;-73
2021/04/09 01:44:30;;;;;;;;;49.90;39.90;;;;;4.29;57.40;101152.26;483576;111;386335;-71
2021/04/09 01:45:34;;;;;;;;;38.60;32.60;;;;;4.20;57.50;101166.66;482127;112;385587;-72
2021/04/09 01:46:40;;;;;;;;;39.90;37.10;;;;;4.09;58.32;101166.22;481632;112;393524;-72
2021/04/09 01:47:44;;;;;;;;;44.80;36.10;;;;;4.09;58.14;101167.98;484330;111;384329;-74
2021/04/09 01:48:48;;;;;;;;;46.40;39.90;;;;;4.07;58.48;101170.70;483287;112;385941;-72
2021/04/09 01:49:54;;;;;;;;;43.60;38.30;;;;;4.19;58.29;101170.20;483492;111;386730;-74
2021/04/09 01:50:58;;;;;;;;;49.30;41.00;;;;;4.32;58.23;101172.33;479966;113;385717;-71
2021/04/09 01:52:01;;;;;;;;;64.40;48.00;;;;;4.40;57.77;101178.16;480599;113;389447;-71
2021/04/09 01:53:06;;;;;;;;;73.20;54.50;;;;;4.40;57.77;101178.16;481681;112;387012;-72
2021/04/09 01:54:10;;;;;;;;;60.00;47.10;;;;;4.46;57.25;101186.67;483458;111;391445;-72
2021/04/09 01:55:15;;;;;;;;;46.80;38.00;;;;;4.50;57.03;101193.51;485312;111;387389;-70
2021/04/09 01:56:19;;;;;;;;;54.50;42.60;;;;;4.48;57.23;101200.63;481352;112;384927;-70
2021/04/09 01:57:23;;;;;;;;;53.70;41.00;;;;;4.46;57.30;101198.98;484467;111;386268;-71
2021/04/09 01:58:28;;;;;;;;;45.00;38.30;;;;;4.46;57.30;101198.98;483468;111;386050;-72
2021/04/09 01:59:32;;;;;;;;;46.80;39.90;;;;;4.47;57.31;101195.41;483347;111;387341;-72
2021/04/09 02:00:37;;;;;;;;;46.70;37.50;;;;;4.60;57.32;101201.89;483146;111;386494;-73
2021/04/09 02:01:40;;;;;;;;;39.90;36.80;;;;;4.60;57.32;101201.89;482835;112;384707;-72
2021/04/09 02:02:45;;;;;;;;;40.30;32.70;;;;;4.71;57.14;101210.22;482088;112;385876;-72
2021/04/09 02:03:51;;;;;;;;;41.80;33.30;;;;;4.73;56.25;101213.64;488993;110;393962;-74
2021/04/09 02:04:55;;;;;;;;;43.40;33.90;;;;;4.57;56.37;101209.92;485811;112;393359;-73
2021/04/09 02:05:59;;;;;;;;;36.40;31.10;;;;;4.57;56.37;101209.92;486403;112;386354;-73
2021/04/09 02:07:03;;;;;;;;;39.10;32.80;;;;;4.57;56.35;101215.19;489336;110;389978;-72
2021/04/09 02:08:08;;;;;;;;;38.60;34.10;;;;;4.57;56.35;101215.19;489197;110;384429;-71
2021/04/09 02:09:12;;;;;;;;;37.30;32.20;;;;;4.43;56.81;101214.91;483996;112;388298;-71
2021/04/09 02:10:17;;;;;;;;;40.80;35.00;;;;;4.51;56.05;101212.80;484137;112;386261;-71
2021/04/09 02:11:21;;;;;;;;;44.90;38.50;;;;;4.51;56.05;101212.80;484382;112;386244;-72
2021/04/09 02:12:24;;;;;;;;;35.70;31.50;;;;;4.57;56.00;101213.41;487244;110;385139;-71
2021/04/09 02:13:29;;;;;;;;;33.60;27.00;;;;;4.54;56.16;101215.31;486471;112;385258;-71
2021/04/09 02:14:33;;;;;;;;;37.30;34.70;;;;;4.59;55.81;101213.37;486256;112;385789;-71
2021/04/09 02:15:36;;;;;;;;;45.70;39.80;;;;;4.63;55.67;101217.56;486382;112;389826;-71
2021/04/09 02:16:42;;;;;;;;;50.60;39.90;;;;;4.76;55.25;101224.05;486869;110;386587;-71
2021/04/09 02:17:46;;;;;;;;;73.00;54.60;;;;;4.77;54.97;101220.50;486400;110;388471;-70
2021/04/09 02:18:50;;;;;;;;;88.10;63.30;;;;;4.79;54.77;101213.37;486347;112;390421;-71
2021/04/09 02:19:53;;;;;;;;;86.55;64.73;;;;;4.79;54.77;101213.37;487234;110;394495;-70
2021/04/09 02:20:57;;;;;;;;;62.90;44.20;;;;;4.85;54.71;101223.66;484288;112;386865;-71
2021/04/09 02:22:01;;;;;;;;;63.30;49.20;;;;;4.87;55.92;101227.11;487319;110;387295;-71
2021/04/09 02:23:05;;;;;;;;;34.00;29.30;;;;;4.85;56.36;101222.83;484124;112;384386;-71
2021/04/09 02:24:10;;;;;;;;;41.00;36.80;;;;;4.84;55.05;101231.64;486628;112;387372;-71
2021/04/09 02:25:15;;;;;;;;;36.90;29.30;;;;;4.82;54.98;101229.06;486321;110;386185;-70
2021/04/09 02:26:19;;;;;;;;;35.10;29.00;;;;;4.70;55.30;101225.17;488855;110;386337;-71
2021/04/09 02:27:23;;;;;;;;;30.70;26.00;;;;;4.35;56.34;101228.38;487194;110;383866;-71
2021/04/09 02:28:27;;;;;;;;;38.00;29.80;;;;;4.35;56.34;101228.38;486423;112;385060;-72
2021/04/09 02:29:32;;;;;;;;;34.70;30.60;;;;;4.43;56.19;101235.98;489214;110;385814;-71
2021/04/09 02:30:36;;;;;;;;;33.40;28.10;;;;;4.37;56.16;101236.23;485142;112;385825;-71
2021/04/09 02:31:40;;;;;;;;;32.80;28.10;;;;;4.44;55.92;101228.00;489195;110;393075;-70
2021/04/09 02:32:43;;;;;;;;;32.30;27.20;;;;;4.56;55.73;101226.66;486605;110;391466;-71
2021/04/09 02:33:47;;;;;;;;;38.60;32.10;;;;;4.51;56.08;101228.61;489147;110;386124;-71
2021/04/09 02:34:51;;;;;;;;;35.20;28.80;;;;;4.56;55.50;101229.30;484332;112;391684;-71
2021/04/09 02:35:55;;;;;;;;;36.60;29.90;;;;;4.56;55.50;101229.30;488421;110;386057;-72
2021/04/09 02:36:59;;;;;;;;;28.50;26.40;;;;;4.60;55.87;101230.87;489260;110;383303;-71
2021/04/09 02:38:02;;;;;;;;;23.30;19.50;;;;;4.47;55.97;101225.23;489449;110;380617;-71
2021/04/09 02:39:08;;;;;;;;;34.70;29.30;;;;;4.47;56.02;101232.28;483907;112;385282;-70
2021/04/09 02:40:14;;;;;;;;;32.40;27.20;;;;;4.48;56.10;101234.87;486495;110;393432;-72
2021/04/09 02:41:19;;;;;;;;;25.30;22.60;;;;;4.36;56.30;101223.97;483888;112;382847;-72
2021/04/09 02:42:23;;;;;;;;;34.00;29.20;;;;;4.36;56.30;101223.97;484134;112;385102;-72
2021/04/09 02:43:26;;;;;;;;;29.20;28.30;;;;;4.40;56.25;101226.44;486425;110;384606;-72
2021/04/09 02:44:30;;;;;;;;;32.60;27.10;;;;;4.40;56.25;101226.44;489297;110;385889;-72
2021/04/09 02:45:34;;;;;;;;;33.80;31.50;;;;;4.30;56.35;101226.84;487372;110;385960;-72
2021/04/09 02:46:39;;;;;;;;;40.70;34.50;;;;;4.17;57.05;101222.08;487593;110;387547;-72
2021/04/09 02:47:43;;;;;;;;;25.30;21.50;;;;;4.17;57.05;101222.08;484620;110;383980;-73
2021/04/09 02:48:51;;;;;;;;;23.00;18.50;;;;;4.03;57.44;101231.41;489458;110;382063;-72
2021/04/09 02:50:00;;;;;;;;;35.30;30.60;;;;;4.04;57.44;101236.63;487100;110;390959;-71
2021/04/09 02:51:06;;;;;;;;;40.80;34.20;;;;;4.10;57.13;101223.22;483787;112;391843;-70
2021/04/09 02:52:14;;;;;;;;;38.80;31.00;;;;;4.10;57.13;101223.22;488601;110;388260;-72
2021/04/09 02:53:19;;;;;;;;;48.90;42.30;;;;;4.10;57.45;101231.13;484092;112;386258;-72
2021/04/09 02:54:22;;;;;;;;;44.10;37.20;;;;;4.10;57.45;101231.13;484111;112;384802;-71
2021/04/09 02:55:27;;;;;;;;;26.60;23.20;;;;;4.01;57.62;101234.11;486994;110;383119;-71
2021/04/09 02:56:31;;;;;;;;;44.30;39.30;;;;;4.07;57.57;101227.75;486518;110;386713;-72
2021/04/09 02:57:35;;;;;;;;;51.50;38.80;;;;;4.07;57.57;101227.75;489317;110;389054;-72
2021/04/09 02:58:39;;;;;;;;;48.50;38.30;;;;;4.15;57.26;101226.52;488792;110;393285;-70
2021/04/09 02:59:43;;;;;;;;;44.70;36.80;;;;;4.37;56.76;101223.06;485089;110;393343;-71
2021/04/09 03:00:48;;;;;;;;;35.40;28.50;;;;;4.37;56.80;101230.96;485719;112;384461;-71
2021/04/09 03:01:52;;;;;;;;;50.10;41.70;;;;;4.43;56.42;101225.45;484063;112;384197;-73
2021/04/09 03:02:56;;;;;;;;;44.20;38.40;;;;;4.50;56.26;101226.92;486490;112;385899;-71
2021/04/09 03:03:59;;;;;;;;;47.30;40.30;;;;;4.58;56.06;101230.09;487081;110;385144;-72
2021/04/09 03:05:05;;;;;;;;;46.90;40.10;;;;;4.58;56.06;101230.09;486290;112;387954;-72
2021/04/09 03:06:09;;;;;;;;;50.40;41.80;;;;;4.59;55.81;101231.81;483248;112;385910;-73
2021/04/09 03:07:13;;;;;;;;;55.40;42.80;;;;;4.62;55.50;101237.81;487119;112;391761;-73
2021/04/09 03:08:17;;;;;;;;;54.10;40.40;;;;;4.62;55.50;101237.81;484968;112;387655;-71
2021/04/09 03:09:21;;;;;;;;;47.20;38.90;;;;;4.65;55.48;101236.83;486009;112;387643;-73
2021/04/09 03:10:25;;;;;;;;;50.20;40.40;;;;;4.59;55.55;101244.98;486523;112;387839;-75
2021/04/09 03:11:29;;;;;;;;;36.80;27.80;;;;;4.62;55.65;101247.48;483670;112;389541;-76
2021/04/09 03:12:33;;;;;;;;;45.70;37.80;;;;;4.62;55.65;101247.48;487028;111;387308;-74
2021/04/09 03:13:37;;;;;;;;;37.80;32.60;;;;;4.65;55.66;101247.36;485278;112;391862;-73
2021/04/09 03:14:41;;;;;;;;;44.40;38.00;;;;;4.63;55.70;101246.55;485658;111;386806;-71
2021/04/09 03:15:49;;;;;;;;;52.80;40.00;;;;;4.63;55.70;101246.55;486346;112;386516;-74
2021/04/09 03:16:56;;;;;;;;;41.20;34.20;;;;;4.60;55.63;101249.31;482985;112;385118;-73
2021/04/09 03:18:02;;;;;;;;;38.10;36.10;;;;;4.60;55.63;101249.31;482153;111;386634;-73
2021/04/09 03:19:07;;;;;;;;;49.50;39.90;;;;;4.49;56.11;101251.53;483053;111;387837;-75
2021/04/09 03:20:13;;;;;;;;;49.20;39.70;;;;;4.48;56.22;101252.44;484509;112;386058;-75
2021/04/09 03:21:17;;;;;;;;;42.00;33.20;;;;;4.48;56.22;101252.44;484082;111;385400;-74
2021/04/09 03:22:21;;;;;;;;;47.90;38.70;;;;;4.51;55.85;101261.08;486950;111;386901;-74
2021/04/09 03:23:25;;;;;;;;;41.80;38.20;;;;;4.55;55.73;101261.82;487237;112;385825;-72
2021/04/09 03:24:29;;;;;;;;;44.60;36.20;;;;;4.56;55.61;101251.20;483874;112;386739;-73
2021/04/09 03:25:33;;;;;;;;;46.90;39.80;;;;;4.60;55.82;101263.34;487035;112;386803;-73
2021/04/09 03:26:37;;;;;;;;;43.90;36.20;;;;;4.62;55.73;101260.66;485111;112;386385;-74
2021/04/09 03:27:41;;;;;;;;;47.40;37.70;;;;;4.62;55.77;101273.84;486414;111;386188;-73
2021/04/09 03:28:45;;;;;;;;;48.70;41.20;;;;;4.56;55.88;101261.74;483091;111;388763;-74
2021/04/09 03:29:49;;;;;;;;;48.70;39.50;;;;;4.54;55.96;101268.00;480327;112;386458;-73
2021/04/09 03:30:53;;;;;;;;;44.90;37.90;;;;;4.51;56.06;101271.63;483391;111;386590;-72
2021/04/09 03:31:57;;;;;;;;;40.40;34.60;;;;;4.51;56.17;101265.48;486665;112;384802;-76
2021/04/09 03:33:01;;;;;;;;;50.50;40.60;;;;;4.53;56.17;101263.67;486631;112;394527;-73
2021/04/09 03:34:05;;;;;;;;;52.90;42.30;;;;;4.39;56.53;101276.52;487281;112;385853;-73
2021/04/09 03:35:10;;;;;;;;;52.50;44.30;;;;;4.41;56.56;101270.27;480019;112;393031;-75
2021/04/09 03:36:16;;;;;;;;;48.40;40.60;;;;;4.41;56.56;101270.27;487092;111;383047;-73
2021/04/09 03:37:20;;;;;;;;;57.70;43.00;;;;;4.34;56.68;101273.22;484880;112;386277;-73
2021/04/09 03:38:24;;;;;;;;;53.70;41.80;;;;;4.30;57.12;101268.98;483561;111;385918;-75
2021/04/09 03:39:28;;;;;;;;;59.50;45.30;;;;;4.17;57.27;101284.39;483701;111;385375;-73
2021/04/09 03:40:32;;;;;;;;;39.10;37.00;;;;;4.17;57.27;101284.39;483752;112;385718;-73
2021/04/09 03:41:36;;;;;;;;;56.00;44.20;;;;;4.21;57.33;101278.94;486973;112;384325;-74
2021/04/09 03:42:40;;;;;;;;;53.70;43.00;;;;;4.10;57.80;101291.66;486907;112;392403;-76
2021/04/09 03:43:44;;;;;;;;;46.40;40.70;;;;;4.08;57.98;101292.64;486870;112;385104;-73
2021/04/09 03:44:48;;;;;;;;;55.00;42.60;;;;;4.18;57.67;101291.39;487188;112;386959;-70
2021/04/09 03:45:52;;;;;;;;;49.30;42.60;;;;;4.11;57.82;101310.95;487376;111;386242;-73
2021/04/09 03:46:56;;;;;;;;;54.70;45.20;;;;;4.11;57.82;101310.95;486933;111;384185;-71
2021/04/09 03:48:00;;;;;;;;;58.50;48.10;;;;;4.09;58.34;101302.23;486683;112;392216;-71
2021/04/09 03:49:04;;;;;;;;;51.30;41.40;;;;;4.07;58.68;101310.21;483344;111;386539;-73
2021/04/09 03:50:09;;;;;;;;;51.20;40.40;;;;;4.12;58.68;101310.88;486372;112;384681;-70
2021/04/09 03:51:12;;;;;;;;;52.10;42.80;;;;;4.17;58.50;101308.95;485756;111;386963;-68
2021/04/09 03:52:16;;;;;;;;;56.30;44.00;;;;;4.20;58.50;101298.30;487063;112;384238;-68
2021/04/09 03:53:20;;;;;;;;;58.40;46.50;;;;;4.28;58.46;101306.75;486782;112;385343;-73
2021/04/09 03:54:24;;;;;;;;;62.30;50.30;;;;;4.20;58.26;101311.47;486689;112;385943;-75
2021/04/09 03:55:28;;;;;;;;;61.30;48.20;;;;;4.20;58.26;101311.47;483464;111;385492;-73
2021/04/09 03:56:32;;;;;;;;;63.10;46.70;;;;;4.26;58.73;101316.50;483982;112;385122;-74
2021/04/09 03:57:36;;;;;;;;;56.80;46.90;;;;;4.23;58.61;101321.88;486758;112;385204;-72
2021/04/09 03:58:40;;;;;;;;;57.20;46.70;;;;;4.26;58.52;101323.53;481837;112;385033;-73
2021/04/09 03:59:44;;;;;;;;;64.70;49.30;;;;;4.20;59.06;101324.63;480752;112;386633;-77
2021/04/09 04:00:48;;;;;;;;;59.70;45.60;;;;;4.20;59.06;101324.63;486997;111;393932;-74
2021/04/09 04:01:52;;;;;;;;;57.80;44.60;;;;;4.28;58.34;101334.86;487482;111;387307;-74
2021/04/09 04:02:56;;;;;;;;;46.30;40.40;;;;;4.18;58.74;101331.70;487370;112;386516;-75
2021/04/09 04:04:00;;;;;;;;;56.30;44.60;;;;;4.18;58.74;101331.70;487312;112;385569;-78
2021/04/09 04:05:05;;;;;;;;;49.80;44.10;;;;;4.10;59.11;101331.16;489199;110;385931;-74
2021/04/09 04:06:10;;;;;;;;;60.70;47.90;;;;;4.10;59.11;101331.16;484270;112;387567;-73
2021/04/09 04:07:14;;;;;;;;;56.10;47.00;;;;;4.24;58.46;101330.64;488546;110;385894;-75
2021/04/09 04:08:18;;;;;;;;;58.10;46.40;;;;;4.27;58.87;101333.16;487678;110;386180;-75
2021/04/09 04:09:22;;;;;;;;;58.00;43.10;;;;;4.27;58.87;101333.16;487663;110;387588;-77
2021/04/09 04:10:27;;;;;;;;;62.50;44.80;;;;;4.27;58.88;101338.42;486972;110;393251;-74
2021/04/09 04:11:31;;;;;;;;;60.40;45.70;;;;;4.27;58.88;101338.42;489129;110;388966;-76
2021/04/09 04:12:34;;;;;;;;;48.10;41.60;;;;;4.32;58.69;101338.23;484353;112;386951;-76
2021/04/09 04:13:38;;;;;;;;;56.80;45.90;;;;;4.35;58.29;101343.38;483945;112;391325;-69
2021/04/09 04:14:42;;;;;;;;;60.00;46.50;;;;;4.35;58.29;101343.38;483753;112;391959;-71
2021/04/09 04:15:46;;;;;;;;;59.00;46.60;;;;;4.35;58.57;101340.75;486677;110;386670;-71
2021/04/09 04:16:49;;;;;;;;;57.10;45.40;;;;;4.38;59.02;101348.53;486997;110;384587;-70
2021/04/09 04:17:53;;;;;;;;;46.20;40.50;;;;;4.46;58.30;101346.48;484403;112;385114;-68
2021/04/09 04:18:57;;;;;;;;;49.20;41.00;;;;;4.53;58.01;101346.16;485058;110;386503;-70
2021/04/09 04:20:01;;;;;;;;;57.40;43.60;;;;;4.57;58.42;101350.41;488246;110;385336;-69
2021/04/09 04:21:05;;;;;;;;;56.40;44.30;;;;;4.57;58.58;101349.55;487269;110;384697;-70
2021/04/09 04:22:09;;;;;;;;;53.60;42.80;;;;;4.63;58.46;101352.80;487098;110;385637;-66
2021/04/09 04:23:13;;;;;;;;;54.40;42.80;;;;;4.63;58.46;101352.80;484330;112;386781;-71
2021/04/09 04:24:16;;;;;;;;;55.70;40.30;;;;;4.54;58.58;101349.66;487181;110;394254;-67
2021/04/09 04:25:20;;;;;;;;;48.70;39.00;;;;;4.54;58.58;101349.66;487060;110;391221;-71
2021/04/09 04:26:24;;;;;;;;;48.10;42.10;;;;;4.57;58.79;101350.41;489324;110;385067;-70
2021/04/09 04:27:28;;;;;;;;;56.70;43.60;;;;;4.68;59.00;101350.00;489115;110;384622;-70
2021/04/09 04:28:32;;;;;;;;;52.40;44.30;;;;;4.63;59.00;101349.30;488776;110;387604;-71
2021/04/09 04:29:36;;;;;;;;;55.40;44.10;;;;;4.63;59.00;101349.30;487257;112;386438;-68
2021/04/09 04:30:41;;;;;;;;;61.40;45.70;;;;;4.60;59.60;101352.92;487602;110;386153;-69
2021/04/09 04:31:45;;;;;;;;;58.60;44.10;;;;;4.63;59.26;101354.57;484302;112;386764;-68
2021/04/09 04:32:48;;;;;;;;;51.70;42.20;;;;;4.59;59.52;101353.00;486384;112;386247;-71
2021/04/09 04:33:52;;;;;;;;;57.70;44.50;;;;;4.55;60.03;101356.66;484295;112;386073;-72
2021/04/09 04:34:56;;;;;;;;;57.70;44.30;;;;;4.55;60.03;101356.66;484240;112;387288;-72
2021/04/09 04:36:00;;;;;;;;;63.10;49.20;;;;;4.56;60.07;101361.85;485925;112;387282;-74
2021/04/09 04:37:04;;;;;;;;;58.60;47.90;;;;;4.63;60.27;101357.20;486447;112;385726;-72
2021/04/09 04:38:08;;;;;;;;;59.80;45.80;;;;;4.63;60.27;101357.20;485891;112;387734;-72
2021/04/09 04:39:12;;;;;;;;;62.20;47.80;;;;;4.67;60.23;101361.44;484281;112;393045;-70
2021/04/09 04:40:17;;;;;;;;;55.70;46.00;;;;;4.76;59.90;101355.81;483337;112;385822;-71
2021/04/09 04:41:21;;;;;;;;;59.30;48.10;;;;;4.83;60.28;101362.56;484130;112;385688;-70
2021/04/09 04:42:25;;;;;;;;;57.00;45.40;;;;;4.83;60.28;101362.56;486547;112;385307;-71
2021/04/09 04:43:29;;;;;;;;;58.90;44.00;;;;;4.94;59.92;101362.14;486323;112;386438;-71
2021/04/09 04:44:33;;;;;;;;;63.00;46.20;;;;;4.97;59.86;101360.25;483913;112;387245;-70
2021/04/09 04:45:37;;;;;;;;;56.50;42.00;;;;;5.00;59.46;101360.13;486419;112;387584;-70
2021/04/09 04:46:41;;;;;;;;;58.00;44.40;;;;;5.04;59.59;101356.41;484305;112;392410;-71
2021/04/09 04:47:45;;;;;;;;;40.40;35.00;;;;;4.97;59.68;101357.61;486448;112;385536;-70
2021/04/09 04:48:49;;;;;;;;;51.30;38.20;;;;;5.00;59.74;101354.84;485927;112;387447;-70
2021/04/09 04:49:53;;;;;;;;;33.10;24.10;;;;;4.99;59.29;101358.39;486595;112;383198;-71
2021/04/09 04:50:57;;;;;;;;;42.90;35.70;;;;;5.04;59.10;101355.59;486397;112;386125;-73
2021/04/09 04:52:01;;;;;;;;;49.30;37.10;;;;;5.05;59.64;101360.78;486088;112;386060;-74
2021/04/09 04:53:04;;;;;;;;;42.50;37.80;;;;;5.06;59.73;101365.14;484346;112;386262;-72
2021/04/09 04:54:08;;;;;;;;;45.20;38.20;;;;;5.10;59.98;101366.74;486470;112;386992;-72
2021/04/09 04:55:13;;;;;;;;;46.60;39.00;;;;;5.13;60.08;101361.34;486440;112;387083;-71